Kezdőlap
METAR-TAF:

METAR-TAF

Repülőterek :

Krasznodar, Oroszország

földrajzi szélesség: 45-02N, földrajzi hosszúság: 039-09E, magasság: 33 m

Jelenlegi meteorológiai megfigyelések

A jelentés 33 perccel ezelõtt készült, 02:00 UTC
Kelet-északkeleti szél 14 kt
Hőmérséklet -4°C
Páratartalom 74%
Légköri nyomás 1030 hPa
Látótávolság 10 km, vagy több
Szakadozott felhőzet

METAR: URKK 220200Z 07007MPS 9999 BKN/// M04/M08 Q1030 R05R/CLRD70 NOSIG RMK QFE769

Idő: 06:33 (02:33 UTC)

Előrejelzés

A jelentés 3 órával és 36 perccel ezelõtt készült, 22:57 UTC
Az előrejelzés 22-én 00 óra UTC és 22-én 24 óra UTC között érvényes
Kelet-északkeleti szél 19 kt széllökések: 29 kt
Látótávolság 10 km, vagy több
Szakadozott felhőzet 2000 lábon
22-én 00 óra UTC és 22-én 24 óra UTC között ideiglenes
Keleti szél 29 kt széllökések: 43 kt

TAF: URKK 212257Z 2200/2224 07010G15MPS 9999 BKN020 TEMPO 2200/2224 08015G22MPS

Meteorológiai megfigyelések és előrejelzések több, mint 4000 repülőtéren (METAR és TAF jelentéseket).

A térképen piros és sárga pontok jelzik az elérhető meteorológiai állomásokat.

Mozgassa az egeret a pont fölött, hogy megjelenjen az állomás neve.

Azután kattintson az időjárási megfigyelések és előrejelzések megtekintéséhez.

A térkép megváltoztatása: kattintson a fekete keresztel jelölt zöld gombra ráközelítéshez, a vonallal jelölt zöld gombra távolításhoz, vagy a zöld nyilakra a szomszédos térképek eléréséhez.


METAR-TAF: